createdAt,value
2022-12-09T00:01:19.915Z,11.30
2022-12-09T00:03:47.933Z,12.37
2022-12-09T00:06:20.492Z,12.80
2022-12-09T00:08:49.083Z,12.27
2022-12-09T00:11:17.067Z,11.07
2022-12-09T00:13:44.456Z,18.80
2022-12-09T00:16:14.864Z,11.03
2022-12-09T00:18:43.311Z,15.03
2022-12-09T00:21:27.776Z,12.33
2022-12-09T00:23:57.795Z,12.80
2022-12-09T00:26:26.988Z,11.10
2022-12-09T00:28:55.728Z,13.20
2022-12-09T00:31:26.366Z,17.97
2022-12-09T00:33:57.934Z,12.20
2022-12-09T00:36:25.717Z,13.43
2022-12-09T00:38:54.964Z,14.07
2022-12-09T00:41:22.190Z,13.37
2022-12-09T00:43:51.481Z,13.47
2022-12-09T00:46:18.929Z,13.00
2022-12-09T00:48:47.234Z,12.30
2022-12-09T00:51:19.537Z,13.20
2022-12-09T00:53:47.681Z,12.83
2022-12-09T00:56:15.398Z,11.63
2022-12-09T00:58:42.583Z,14.43
2022-12-09T01:01:09.885Z,12.53
2022-12-09T01:03:37.150Z,12.77
2022-12-09T01:06:15.714Z,12.30
2022-12-09T01:08:43.718Z,16.23
2022-12-09T01:11:16.494Z,14.67
2022-12-09T01:13:43.866Z,14.27
2022-12-09T01:16:33.465Z,13.30
2022-12-09T01:19:07.541Z,14.67
2022-12-09T01:21:35.645Z,12.80
2022-12-09T01:24:10.845Z,15.13
2022-12-09T01:26:38.739Z,13.80
2022-12-09T01:29:06.204Z,14.30
2022-12-09T01:31:33.497Z,11.43
2022-12-09T01:34:03.431Z,14.40
2022-12-09T01:36:31.144Z,16.13
2022-12-09T01:38:59.998Z,15.67
2022-12-09T01:41:28.755Z,14.43
2022-12-09T01:44:22.725Z,15.40
2022-12-09T01:46:58.204Z,14.23
2022-12-09T01:49:43.173Z,14.70
2022-12-09T01:52:18.502Z,13.50
2022-12-09T01:54:47.324Z,13.00
2022-12-09T01:57:15.754Z,15.43
2022-12-09T01:59:44.800Z,17.70
2022-12-09T02:02:17.028Z,12.77
2022-12-09T02:04:48.245Z,14.63
2022-12-09T02:07:19.882Z,15.93
2022-12-09T02:09:53.197Z,14.00
2022-12-09T02:12:50.369Z,18.20
2022-12-09T02:15:52.273Z,14.83
2022-12-09T02:18:37.329Z,17.03
2022-12-09T02:21:11.898Z,14.77
2022-12-09T02:23:51.717Z,14.63
2022-12-09T02:26:34.700Z,16.00
2022-12-09T02:29:07.946Z,15.60
2022-12-09T02:32:17.171Z,12.67
2022-12-09T02:34:56.187Z,14.80
2022-12-09T02:37:39.959Z,15.23
2022-12-09T02:40:31.940Z,17.80
2022-12-09T02:43:01.858Z,14.20
2022-12-09T02:45:31.205Z,15.90
2022-12-09T02:48:04.370Z,17.37
2022-12-09T02:50:36.924Z,18.73
2022-12-09T02:53:10.474Z,19.07
2022-12-09T02:55:40.373Z,18.30
2022-12-09T02:58:07.931Z,20.30
2022-12-09T03:00:38.783Z,18.50
2022-12-09T03:03:11.591Z,17.30
2022-12-09T03:06:06.633Z,19.63
2022-12-09T03:09:21.808Z,16.50
2022-12-09T03:11:50.944Z,17.40
2022-12-09T03:14:27.767Z,17.90
2022-12-09T03:17:21.911Z,17.53
2022-12-09T03:20:01.035Z,17.37
2022-12-09T03:22:31.505Z,17.93
2022-12-09T03:25:15.957Z,19.00
2022-12-09T03:28:04.243Z,17.20
2022-12-09T03:30:39.736Z,23.60
2022-12-09T03:33:08.653Z,18.27
2022-12-09T03:35:44.145Z,17.17
2022-12-09T03:38:16.597Z,16.00
2022-12-09T03:40:44.704Z,18.63
2022-12-09T03:43:34.582Z,18.33
2022-12-09T03:46:02.091Z,17.83
2022-12-09T03:48:29.909Z,18.63
2022-12-09T03:51:13.111Z,15.53
2022-12-09T03:54:06.095Z,14.70
2022-12-09T03:56:39.900Z,16.50
2022-12-09T03:59:13.158Z,18.50
2022-12-09T04:01:45.936Z,17.27
2022-12-09T04:04:14.390Z,20.93
2022-12-09T04:06:42.322Z,17.90
2022-12-09T04:09:12.379Z,18.50
2022-12-09T04:11:39.824Z,15.07
2022-12-09T04:14:11.902Z,19.80
2022-12-09T04:16:42.657Z,16.70
2022-12-09T04:19:10.252Z,18.47
2022-12-09T04:21:37.392Z,19.87
2022-12-09T04:24:04.966Z,19.70
2022-12-09T04:26:32.248Z,22.53
2022-12-09T04:28:59.667Z,19.47
2022-12-09T04:31:27.372Z,20.57
2022-12-09T04:33:54.960Z,20.93
2022-12-09T04:36:22.482Z,22.00
2022-12-09T04:38:51.167Z,25.20
2022-12-09T04:41:18.269Z,20.33
2022-12-09T04:43:45.724Z,19.23
2022-12-09T04:46:16.991Z,22.90
2022-12-09T04:48:45.080Z,21.20
2022-12-09T04:51:14.923Z,30.73
2022-12-09T04:53:42.648Z,24.40
2022-12-09T04:56:15.546Z,22.00
2022-12-09T04:58:44.992Z,21.57
2022-12-09T05:01:21.664Z,20.60
2022-12-09T05:03:54.122Z,18.77
2022-12-09T05:06:22.994Z,19.37
2022-12-09T05:08:51.325Z,28.80
2022-12-09T05:11:20.794Z,20.17
2022-12-09T05:13:48.119Z,19.80
2022-12-09T05:16:18.612Z,20.40
2022-12-09T05:18:48.901Z,26.33
2022-12-09T05:21:19.373Z,22.77
2022-12-09T05:23:46.760Z,20.60
2022-12-09T05:26:22.101Z,18.20
2022-12-09T05:28:51.079Z,19.37
2022-12-09T05:31:22.097Z,19.97
2022-12-09T05:33:51.331Z,21.43
2022-12-09T05:36:24.522Z,20.13
2022-12-09T05:38:53.389Z,15.47
2022-12-09T05:41:22.932Z,17.13
2022-12-09T05:43:50.624Z,23.30
2022-12-09T05:46:19.993Z,21.80
2022-12-09T05:48:47.623Z,23.87
2022-12-09T05:51:18.161Z,21.57
2022-12-09T05:53:45.621Z,26.13
2022-12-09T05:56:17.119Z,22.13
2022-12-09T05:58:44.967Z,22.90
2022-12-09T06:01:13.217Z,22.80
2022-12-09T06:03:41.808Z,23.50
2022-12-09T06:06:13.757Z,23.60
2022-12-09T06:08:42.733Z,24.63
2022-12-09T06:11:21.519Z,24.80
2022-12-09T06:13:50.644Z,28.93
2022-12-09T06:16:20.885Z,20.40
2022-12-09T06:18:49.515Z,20.37
2022-12-09T06:21:19.133Z,25.80
2022-12-09T06:23:47.601Z,22.97
2022-12-09T06:26:27.792Z,24.60
2022-12-09T06:28:56.286Z,54.80
2022-12-09T06:31:24.080Z,48.00
2022-12-09T06:33:55.445Z,24.93
2022-12-09T06:36:24.426Z,23.13
2022-12-09T06:38:52.278Z,25.50
2022-12-09T06:41:19.954Z,22.63
2022-12-09T06:43:47.517Z,26.03
2022-12-09T06:46:19.502Z,27.10
2022-12-09T06:48:48.083Z,19.33
2022-12-09T06:51:17.674Z,24.00
2022-12-09T06:53:45.572Z,20.20
2022-12-09T06:56:14.268Z,22.43
2022-12-09T06:58:44.434Z,19.53
2022-12-09T07:01:32.240Z,23.77
2022-12-09T07:04:00.130Z,21.27
2022-12-09T07:06:48.905Z,20.70
2022-12-09T07:09:20.081Z,21.77
2022-12-09T07:11:48.933Z,21.93
2022-12-09T07:14:18.644Z,21.30
2022-12-09T07:16:46.931Z,17.97
2022-12-09T07:19:24.023Z,20.10
2022-12-09T07:21:51.714Z,20.77
2022-12-09T07:24:20.268Z,18.53
2022-12-09T07:26:48.038Z,20.73
2022-12-09T07:29:16.041Z,21.87
2022-12-09T07:31:45.272Z,21.10
2022-12-09T07:34:12.719Z,19.50
2022-12-09T07:36:40.685Z,21.90
2022-12-09T07:39:16.371Z,17.87
2022-12-09T07:41:44.655Z,19.63
2022-12-09T07:44:12.812Z,13.23
2022-12-09T07:46:40.894Z,16.57
2022-12-09T07:49:08.576Z,18.97
2022-12-09T07:51:38.369Z,18.40
2022-12-09T07:54:06.090Z,16.87
2022-12-09T07:56:33.680Z,19.87
2022-12-09T07:59:01.022Z,18.50
2022-12-09T08:01:30.312Z,16.77
2022-12-09T08:03:58.319Z,17.80
2022-12-09T08:06:28.514Z,18.30
2022-12-09T08:09:03.104Z,17.23
2022-12-09T08:11:32.249Z,16.57
2022-12-09T08:14:08.861Z,17.13
2022-12-09T08:16:38.579Z,19.63
2022-12-09T08:19:06.263Z,17.33
2022-12-09T08:21:34.376Z,15.13
2022-12-09T08:24:06.114Z,15.30
2022-12-09T08:26:35.224Z,17.37
2022-12-09T08:29:02.767Z,17.13
2022-12-09T08:31:31.477Z,18.40
2022-12-09T08:34:05.493Z,18.93
2022-12-09T08:36:33.766Z,22.07
2022-12-09T08:39:02.295Z,21.30
2022-12-09T08:41:36.922Z,20.70
2022-12-09T08:44:08.023Z,20.77
2022-12-09T08:46:39.093Z,22.37
2022-12-09T08:49:07.415Z,23.30
2022-12-09T08:51:34.983Z,24.80
2022-12-09T08:54:03.380Z,19.13
2022-12-09T08:56:30.802Z,25.13
2022-12-09T08:58:58.181Z,20.23
2022-12-09T09:01:32.990Z,20.93
2022-12-09T09:04:07.601Z,21.43
2022-12-09T09:06:37.322Z,22.60
2022-12-09T09:09:07.335Z,26.27
2022-12-09T09:11:35.730Z,22.63
2022-12-09T09:14:06.666Z,26.47
2022-12-09T09:16:34.657Z,24.60
2022-12-09T09:19:05.878Z,25.73
2022-12-09T09:21:35.773Z,23.27
2022-12-09T09:24:08.850Z,20.20
2022-12-09T09:26:39.997Z,21.07
2022-12-09T09:29:07.304Z,21.90
2022-12-09T09:31:35.086Z,25.03
2022-12-09T09:34:02.921Z,23.13
2022-12-09T09:36:31.505Z,24.83
2022-12-09T09:38:59.529Z,24.03
2022-12-09T09:41:55.422Z,24.50
2022-12-09T09:44:50.224Z,25.97
2022-12-09T09:48:03.615Z,23.60
2022-12-09T09:50:46.337Z,22.90
2022-12-09T09:53:32.790Z,31.47
2022-12-09T09:56:05.724Z,22.70
2022-12-09T09:59:17.773Z,25.20
2022-12-09T10:02:00.595Z,23.90
2022-12-09T10:04:45.317Z,19.33
2022-12-09T10:07:45.192Z,21.53
2022-12-09T10:10:46.800Z,22.07
2022-12-09T10:13:48.472Z,21.43
2022-12-09T10:16:29.167Z,23.67
2022-12-09T10:19:20.048Z,22.90
2022-12-09T10:21:52.124Z,21.93
2022-12-09T10:24:38.711Z,19.13
2022-12-09T10:27:31.560Z,26.90
2022-12-09T10:30:04.778Z,22.97
2022-12-09T10:32:38.380Z,18.07
2022-12-09T10:35:29.796Z,25.43
2022-12-09T10:38:11.150Z,22.20
2022-12-09T10:41:54.643Z,23.90
2022-12-09T10:44:25.553Z,21.47
2022-12-09T10:47:05.237Z,19.60
2022-12-09T10:49:34.980Z,18.87
2022-12-09T10:52:05.281Z,22.57
2022-12-09T10:54:44.885Z,20.90
2022-12-09T10:57:12.676Z,22.17
2022-12-09T10:59:43.748Z,21.90
2022-12-09T11:02:11.216Z,20.93
2022-12-09T11:04:42.990Z,23.50
2022-12-09T11:07:14.055Z,24.70
2022-12-09T11:09:51.253Z,22.53
2022-12-09T11:12:38.208Z,22.47
2022-12-09T11:15:46.999Z,22.93
2022-12-09T11:18:29.135Z,22.27
2022-12-09T11:21:08.764Z,23.00
2022-12-09T11:23:36.896Z,23.80
2022-12-09T11:26:23.949Z,25.77
2022-12-09T11:29:14.063Z,24.40
2022-12-09T11:31:42.224Z,25.40
2022-12-09T11:34:26.337Z,21.03
2022-12-09T11:36:57.890Z,21.87
2022-12-09T11:39:33.513Z,22.73
2022-12-09T11:42:19.610Z,21.30
2022-12-09T11:44:59.670Z,21.27
2022-12-09T11:48:22.631Z,22.80
2022-12-09T11:50:34.477Z,22.40
2022-12-09T11:53:19.203Z,23.30
2022-12-09T11:56:08.232Z,21.00
2022-12-09T11:58:41.197Z,19.73
2022-12-09T12:01:27.344Z,19.13
2022-12-09T12:04:01.787Z,21.50
2022-12-09T12:07:04.083Z,29.30
2022-12-09T12:10:16.574Z,21.30
2022-12-09T12:13:02.220Z,19.57
2022-12-09T12:16:00.851Z,24.57
2022-12-09T12:18:38.559Z,22.17
2022-12-09T12:21:31.763Z,18.10
2022-12-09T12:24:24.464Z,26.20
2022-12-09T12:27:12.448Z,21.07
2022-12-09T12:29:47.571Z,20.53
2022-12-09T12:33:40.715Z,20.93
2022-12-09T12:36:13.520Z,18.93
2022-12-09T12:39:25.124Z,19.93
2022-12-09T12:42:16.811Z,19.40
2022-12-09T12:45:22.968Z,20.43
2022-12-09T12:48:04.581Z,21.90
2022-12-09T12:50:43.850Z,21.40
2022-12-09T12:53:26.785Z,15.97
2022-12-09T12:56:05.674Z,22.20
2022-12-09T12:58:57.309Z,21.30
2022-12-09T13:01:47.263Z,24.33
2022-12-09T13:04:20.672Z,20.90
2022-12-09T13:07:25.057Z,18.33
2022-12-09T13:10:43.371Z,19.57
2022-12-09T13:13:30.443Z,22.90
2022-12-09T13:16:12.678Z,21.07
2022-12-09T13:18:40.532Z,26.40
2022-12-09T13:21:09.106Z,22.00
2022-12-09T13:23:58.865Z,24.83
2022-12-09T13:26:40.954Z,21.40
2022-12-09T13:29:57.468Z,19.90
2022-12-09T13:32:58.134Z,22.90
2022-12-09T13:36:22.485Z,22.03
2022-12-09T13:38:50.374Z,25.27
2022-12-09T13:41:26.733Z,22.27
2022-12-09T13:44:16.154Z,24.30
2022-12-09T13:46:43.338Z,24.93
2022-12-09T13:49:27.120Z,24.37
2022-12-09T13:51:56.168Z,24.13
2022-12-09T13:54:28.904Z,25.37
2022-12-09T13:57:37.765Z,25.20
2022-12-09T14:00:16.610Z,24.83
2022-12-09T14:03:00.691Z,24.70
2022-12-09T14:05:31.641Z,23.10
2022-12-09T14:08:07.375Z,26.53
2022-12-09T14:10:50.426Z,27.00
2022-12-09T14:13:29.961Z,23.87
2022-12-09T14:16:26.483Z,24.93
2022-12-09T14:18:57.766Z,22.63
2022-12-09T14:21:31.331Z,27.30
2022-12-09T14:24:11.456Z,27.97
2022-12-09T14:26:48.115Z,24.37
2022-12-09T14:29:49.226Z,28.40
2022-12-09T14:32:32.336Z,27.47
2022-12-09T14:35:11.791Z,32.00
2022-12-09T14:37:50.882Z,26.77
2022-12-09T14:40:53.481Z,28.90
2022-12-09T14:43:59.224Z,33.93
2022-12-09T14:46:35.100Z,25.77
2022-12-09T14:49:19.113Z,29.33
2022-12-09T14:51:50.655Z,24.53
2022-12-09T14:54:26.169Z,24.67
2022-12-09T14:56:58.188Z,30.73
2022-12-09T14:59:29.799Z,28.50
2022-12-09T15:02:09.394Z,26.90
2022-12-09T15:04:43.216Z,27.47
2022-12-09T15:07:10.338Z,24.13
2022-12-09T15:09:46.410Z,24.33
2022-12-09T15:12:13.760Z,22.13
2022-12-09T15:14:44.280Z,24.47
2022-12-09T15:17:24.621Z,23.60
2022-12-09T15:20:00.210Z,23.03
2022-12-09T15:22:31.674Z,22.20
2022-12-09T15:24:59.742Z,26.40
2022-12-09T15:27:26.859Z,24.47
2022-12-09T15:29:55.085Z,28.33
2022-12-09T15:32:29.078Z,26.67
2022-12-09T15:34:56.524Z,24.37
2022-12-09T15:37:27.591Z,21.87
2022-12-09T15:40:08.817Z,23.93
2022-12-09T15:42:40.526Z,21.23
2022-12-09T15:45:15.820Z,24.37
2022-12-09T15:48:14.390Z,21.33
2022-12-09T15:50:50.218Z,21.73
2022-12-09T15:53:31.110Z,23.53
2022-12-09T15:56:15.858Z,26.23
2022-12-09T15:58:52.003Z,25.40
2022-12-09T16:01:27.561Z,21.07
2022-12-09T16:03:57.138Z,25.20
2022-12-09T16:06:36.515Z,26.43
2022-12-09T16:09:18.429Z,25.60
2022-12-09T16:11:51.347Z,21.73
2022-12-09T16:14:21.859Z,23.80
2022-12-09T16:16:58.093Z,26.17
2022-12-09T16:19:31.147Z,25.00
2022-12-09T16:22:14.782Z,24.13
2022-12-09T16:25:14.570Z,25.80
2022-12-09T16:27:50.297Z,23.67
2022-12-09T16:30:24.413Z,24.37
2022-12-09T16:32:57.984Z,27.50
2022-12-09T16:35:27.329Z,23.93
2022-12-09T16:37:57.786Z,24.40
2022-12-09T16:40:24.810Z,24.93
2022-12-09T16:43:17.124Z,23.80
2022-12-09T16:45:48.829Z,25.97
2022-12-09T16:48:17.360Z,27.80
2022-12-09T16:51:09.774Z,20.40
2022-12-09T16:53:49.419Z,25.07
2022-12-09T16:56:25.001Z,28.60
2022-12-09T16:58:54.011Z,23.53
2022-12-09T17:01:27.084Z,25.40
2022-12-09T17:04:06.505Z,31.40
2022-12-09T17:06:33.788Z,23.20
2022-12-09T17:09:00.870Z,29.70
2022-12-09T17:11:28.179Z,27.17
2022-12-09T17:13:55.330Z,30.53
2022-12-09T17:16:24.327Z,30.73
2022-12-09T17:18:51.611Z,29.97
2022-12-09T17:21:19.521Z,29.20
2022-12-09T17:23:47.742Z,28.63
2022-12-09T17:26:17.602Z,27.97
2022-12-09T17:28:46.081Z,32.10
2022-12-09T17:31:20.954Z,31.90
2022-12-09T17:33:49.046Z,32.90
2022-12-09T17:36:17.759Z,29.03
2022-12-09T17:38:45.374Z,29.20
2022-12-09T17:41:16.097Z,29.20
2022-12-09T17:43:43.448Z,27.47
2022-12-09T17:46:11.840Z,30.00
2022-12-09T17:48:40.206Z,27.40
2022-12-09T17:51:13.533Z,27.40
2022-12-09T17:53:42.875Z,29.70
2022-12-09T17:56:20.096Z,26.67
2022-12-09T17:58:54.024Z,29.53
2022-12-09T18:01:24.159Z,27.30
2022-12-09T18:03:56.794Z,24.60
2022-12-09T18:06:27.187Z,24.00
2022-12-09T18:08:54.748Z,26.03
2022-12-09T18:11:22.603Z,24.60
2022-12-09T18:13:50.835Z,24.17
2022-12-09T18:16:19.283Z,24.53
2022-12-09T18:18:46.655Z,30.10
2022-12-09T18:21:16.349Z,28.60
2022-12-09T18:23:43.845Z,25.07
2022-12-09T18:26:15.370Z,25.20
2022-12-09T18:28:44.109Z,23.37
2022-12-09T18:31:19.247Z,23.07
2022-12-09T18:33:52.487Z,26.33
2022-12-09T18:36:27.087Z,22.27
2022-12-09T18:38:54.726Z,27.40
2022-12-09T18:41:25.754Z,22.43
2022-12-09T18:43:54.443Z,23.10
2022-12-09T18:46:26.839Z,24.53
2022-12-09T18:49:24.862Z,18.77
2022-12-09T18:51:53.131Z,25.10
2022-12-09T18:54:26.467Z,22.03
2022-12-09T18:56:55.430Z,21.23
2022-12-09T18:59:25.083Z,19.20
2022-12-09T19:01:53.114Z,16.93
2022-12-09T19:04:28.059Z,18.60
2022-12-09T19:06:58.292Z,20.53
2022-12-09T19:09:32.082Z,23.87
2022-12-09T19:12:16.620Z,19.20
2022-12-09T19:14:47.282Z,21.87
2022-12-09T19:17:14.350Z,20.87
2022-12-09T19:19:41.550Z,22.73
2022-12-09T19:22:08.646Z,27.00
2022-12-09T19:24:41.373Z,19.20
2022-12-09T19:27:10.040Z,22.63
2022-12-09T19:29:37.357Z,22.37
2022-12-09T19:32:13.917Z,21.73
2022-12-09T19:34:51.158Z,23.30
2022-12-09T19:37:18.319Z,21.07
2022-12-09T19:39:46.719Z,25.90
2022-12-09T19:42:14.161Z,20.90
2022-12-09T19:47:28.452Z,22.00
2022-12-09T19:49:55.720Z,22.23
2022-12-09T19:52:22.972Z,21.10
2022-12-09T19:54:50.322Z,20.07
2022-12-09T19:57:17.390Z,20.70
2022-12-09T19:59:44.442Z,20.63
2022-12-09T20:02:14.004Z,22.20
2022-12-09T20:04:50.316Z,21.50
2022-12-09T20:07:18.808Z,22.70
2022-12-09T20:09:46.495Z,21.93
2022-12-09T20:12:15.165Z,20.33
2022-12-09T20:14:43.526Z,23.90
2022-12-09T20:17:11.223Z,21.40
2022-12-09T20:19:38.269Z,20.60
2022-12-09T20:22:05.733Z,23.33
2022-12-09T20:24:32.849Z,21.63
2022-12-09T20:27:00.906Z,24.97
2022-12-09T20:29:33.930Z,21.83
2022-12-09T20:32:03.254Z,20.73
2022-12-09T20:34:33.733Z,25.20
2022-12-09T20:37:01.523Z,26.60
2022-12-09T20:39:29.908Z,26.43
2022-12-09T20:44:47.562Z,22.67
2022-12-09T20:47:35.375Z,25.17
2022-12-09T20:50:05.822Z,22.33
2022-12-09T20:52:53.714Z,28.07
2022-12-09T20:55:23.978Z,27.60
2022-12-09T20:57:51.189Z,26.83
2022-12-09T21:00:18.842Z,22.60
2022-12-09T21:02:47.158Z,27.90
2022-12-09T21:05:17.695Z,25.00
2022-12-09T21:07:51.487Z,24.23
2022-12-09T21:10:18.610Z,29.07
2022-12-09T21:12:46.407Z,25.60
2022-12-09T21:15:14.326Z,28.03
2022-12-09T21:17:41.497Z,27.17
2022-12-09T21:20:10.146Z,29.23
2022-12-09T21:22:37.460Z,31.10
2022-12-09T21:25:04.951Z,32.70
2022-12-09T21:27:32.072Z,33.40
2022-12-09T21:29:59.100Z,32.13
2022-12-09T21:32:26.328Z,36.57
2022-12-09T21:34:55.506Z,34.87
2022-12-09T21:37:22.555Z,33.70
2022-12-09T21:39:49.585Z,33.63
2022-12-09T21:42:17.133Z,37.30
2022-12-09T21:44:44.247Z,43.23
2022-12-09T21:47:11.552Z,40.20
2022-12-09T21:49:38.885Z,42.63
2022-12-09T21:52:06.734Z,45.30
2022-12-09T21:54:33.807Z,42.17
2022-12-09T21:57:01.092Z,50.23
2022-12-09T21:59:29.454Z,38.67
2022-12-09T22:01:56.706Z,44.83
2022-12-09T22:04:23.786Z,47.70
2022-12-09T22:06:51.135Z,44.23
2022-12-09T22:09:20.666Z,47.90
2022-12-09T22:11:47.721Z,44.73
2022-12-09T22:14:15.086Z,50.60
2022-12-09T22:16:44.594Z,41.90
2022-12-09T22:19:20.963Z,45.80
2022-12-09T22:21:48.809Z,47.77
2022-12-09T22:24:18.816Z,51.60
2022-12-09T22:26:46.359Z,48.80
2022-12-09T22:29:16.536Z,52.60
2022-12-09T22:31:44.898Z,54.63
2022-12-09T22:34:19.518Z,49.27
2022-12-09T22:36:49.178Z,53.10
2022-12-09T22:39:19.356Z,58.80
2022-12-09T22:41:46.467Z,55.17
2022-12-09T22:44:19.007Z,57.87
2022-12-09T22:46:46.965Z,48.07
2022-12-09T22:49:15.424Z,55.97
2022-12-09T22:51:43.830Z,62.80
2022-12-09T22:54:12.238Z,51.13
2022-12-09T22:56:42.062Z,54.73
2022-12-09T22:59:10.093Z,58.73
2022-12-09T23:01:38.417Z,53.33
2022-12-09T23:04:07.445Z,50.83
2022-12-09T23:06:37.226Z,49.40
2022-12-09T23:09:06.221Z,49.50
2022-12-09T23:11:33.293Z,56.60
2022-12-09T23:14:01.010Z,54.70
2022-12-09T23:16:28.608Z,51.73
2022-12-09T23:18:58.603Z,53.67
2022-12-09T23:21:29.546Z,46.47
2022-12-09T23:24:04.489Z,49.90
2022-12-09T23:26:34.526Z,56.10
2022-12-09T23:29:02.841Z,52.87
2022-12-09T23:31:33.504Z,52.80
2022-12-09T23:34:02.509Z,52.43
2022-12-09T23:36:36.889Z,49.63
2022-12-09T23:39:12.111Z,51.20
2022-12-09T23:41:41.260Z,50.33
2022-12-09T23:44:10.982Z,47.83
2022-12-09T23:46:38.779Z,49.00
2022-12-09T23:49:07.603Z,49.10
2022-12-09T23:51:38.971Z,52.57
2022-12-09T23:54:08.372Z,51.27
2022-12-09T23:56:39.270Z,54.23
2022-12-09T23:59:12.739Z,50.27
